NCA94 PANC-RJTT
Flight info
| Callsign | NCA94 |
|---|---|
| Flight time | N/A |
| Altitude | 34000 |
| Route | NODLE R220 NICHO M523 HIRAM DCT NOLTI/N0483F350 R220 NIKLL/N0496F360 R220 NOGAL/N0480F370 R220 NANAC/N0481F380 R220 IXE Y88 DAIGO Y10 GODIN |
| Aircraft | B748/H-SDE3FGHIM1M2RWXY/LB1 |
Departure
| Time | N/A |
|---|---|
| Airport | Ted Stevens Anchorage International Airport (PANC) |
Arrival
| Time | 2026-05-06 01:22 |
|---|---|
| Airport | Tokyo Haneda International Airport (RJTT) |
| Time | Latitude | Longitude | Altitude | Speed | Heading |
|---|---|---|---|---|---|
| 2026-05-06 00:46 | 37.36034 | 141.24020 | 36373 ft | 388 kts | 232° |
| 2026-05-06 00:46 | 37.34131 | 141.21635 | 35756 ft | 387 kts | 232° |
| 2026-05-06 00:46 | 37.32225 | 141.19243 | 35133 ft | 386 kts | 233° |
| 2026-05-06 00:47 | 37.30327 | 141.16862 | 34513 ft | 385 kts | 233° |
| 2026-05-06 00:47 | 37.28431 | 141.14487 | 33959 ft | 382 kts | 233° |
| 2026-05-06 00:47 | 37.26566 | 141.12154 | 33398 ft | 377 kts | 232° |
| 2026-05-06 00:47 | 37.24708 | 141.09824 | 32628 ft | 378 kts | 231° |
| 2026-05-06 00:48 | 37.22848 | 141.07495 | 31888 ft | 378 kts | 230° |
| 2026-05-06 00:48 | 37.20977 | 141.05160 | 31152 ft | 379 kts | 229° |
| 2026-05-06 00:48 | 37.19125 | 141.02851 | 30428 ft | 380 kts | 229° |
| 2026-05-06 00:48 | 37.17247 | 141.00510 | 29635 ft | 381 kts | 228° |
| 2026-05-06 00:49 | 37.15372 | 140.98170 | 28910 ft | 379 kts | 230° |
| 2026-05-06 00:49 | 37.13675 | 140.95676 | 28214 ft | 375 kts | 234° |
| 2026-05-06 00:49 | 37.12046 | 140.93123 | 27520 ft | 374 kts | 233° |
| 2026-05-06 00:49 | 37.10420 | 140.90602 | 26816 ft | 373 kts | 233° |
| 2026-05-06 00:50 | 37.08842 | 140.88151 | 26178 ft | 371 kts | 234° |
| 2026-05-06 00:50 | 37.07225 | 140.85628 | 25525 ft | 370 kts | 234° |
| 2026-05-06 00:50 | 37.05615 | 140.83121 | 24876 ft | 369 kts | 234° |
| 2026-05-06 00:50 | 37.04006 | 140.80620 | 24231 ft | 368 kts | 234° |
| 2026-05-06 00:51 | 37.02403 | 140.78132 | 23611 ft | 366 kts | 234° |
| 2026-05-06 00:51 | 37.00807 | 140.75652 | 22815 ft | 366 kts | 233° |
| 2026-05-06 00:51 | 36.99209 | 140.73171 | 22083 ft | 365 kts | 233° |
| 2026-05-06 00:51 | 36.97615 | 140.70701 | 21323 ft | 365 kts | 232° |
| 2026-05-06 00:52 | 36.96044 | 140.68270 | 20611 ft | 364 kts | 232° |
| 2026-05-06 00:52 | 36.94447 | 140.65797 | 19860 ft | 365 kts | 231° |
| 2026-05-06 00:52 | 36.92850 | 140.63326 | 19150 ft | 366 kts | 230° |
| 2026-05-06 00:52 | 36.91253 | 140.60858 | 18503 ft | 364 kts | 230° |
| 2026-05-06 00:53 | 36.89661 | 140.58402 | 17755 ft | 363 kts | 230° |
| 2026-05-06 00:53 | 36.88078 | 140.55963 | 17116 ft | 359 kts | 229° |
| 2026-05-06 00:53 | 36.86517 | 140.53556 | 16464 ft | 355 kts | 229° |
| 2026-05-06 00:53 | 36.84971 | 140.51173 | 15807 ft | 352 kts | 229° |
| 2026-05-06 00:54 | 36.83429 | 140.48797 | 15179 ft | 350 kts | 229° |
| 2026-05-06 00:54 | 36.81905 | 140.46453 | 14557 ft | 347 kts | 229° |
| 2026-05-06 00:54 | 36.80386 | 140.44119 | 13897 ft | 345 kts | 229° |
| 2026-05-06 00:54 | 36.78880 | 140.41805 | 13232 ft | 342 kts | 229° |
| 2026-05-06 00:55 | 36.77383 | 140.39505 | 12528 ft | 340 kts | 229° |
| 2026-05-06 00:55 | 36.75882 | 140.37234 | 11841 ft | 338 kts | 225° |
| 2026-05-06 00:55 | 36.74056 | 140.35447 | 11175 ft | 333 kts | 206° |
| 2026-05-06 00:55 | 36.71948 | 140.34487 | 10881 ft | 319 kts | 189° |
| 2026-05-06 00:56 | 36.69815 | 140.34088 | 10593 ft | 306 kts | 189° |
| 2026-05-06 00:56 | 36.68458 | 140.33799 | 10445 ft | 296 kts | 190° |
| 2026-05-06 00:56 | 36.65806 | 140.33239 | 10087 ft | 281 kts | 189° |
| 2026-05-06 00:56 | 36.63934 | 140.32869 | 9876 ft | 269 kts | 189° |
| 2026-05-06 00:57 | 36.62122 | 140.32572 | 9549 ft | 262 kts | 187° |
| 2026-05-06 00:57 | 36.60915 | 140.32370 | 9240 ft | 261 kts | 189° |
| 2026-05-06 00:57 | 36.59111 | 140.32020 | 8868 ft | 258 kts | 189° |
| 2026-05-06 00:57 | 36.57361 | 140.31703 | 8462 ft | 256 kts | 188° |
| 2026-05-06 00:58 | 36.55600 | 140.31405 | 8080 ft | 254 kts | 188° |
| 2026-05-06 00:58 | 36.53885 | 140.31115 | 7994 ft | 244 kts | 189° |
| 2026-05-06 00:58 | 36.52177 | 140.30818 | 7999 ft | 250 kts | 189° |
| 2026-05-06 00:58 | 36.50455 | 140.30519 | 8004 ft | 251 kts | 189° |
| 2026-05-06 00:59 | 36.48722 | 140.30221 | 8005 ft | 252 kts | 189° |
| 2026-05-06 00:59 | 36.46986 | 140.29922 | 8010 ft | 252 kts | 189° |
| 2026-05-06 00:59 | 36.45251 | 140.29623 | 8010 ft | 252 kts | 189° |
| 2026-05-06 00:59 | 36.43513 | 140.29324 | 8012 ft | 252 kts | 189° |
| 2026-05-06 01:00 | 36.41779 | 140.29025 | 8005 ft | 252 kts | 188° |
| 2026-05-06 01:00 | 36.40040 | 140.28726 | 8007 ft | 252 kts | 188° |
| 2026-05-06 01:00 | 36.38327 | 140.28431 | 8004 ft | 252 kts | 189° |
| 2026-05-06 01:00 | 36.36594 | 140.28134 | 7995 ft | 251 kts | 188° |
| 2026-05-06 01:01 | 36.34863 | 140.27835 | 7994 ft | 251 kts | 188° |
| 2026-05-06 01:01 | 36.33130 | 140.27537 | 7994 ft | 251 kts | 188° |
| 2026-05-06 01:01 | 36.31397 | 140.27240 | 7998 ft | 252 kts | 188° |
| 2026-05-06 01:01 | 36.29658 | 140.26941 | 8002 ft | 252 kts | 188° |
| 2026-05-06 01:02 | 36.27914 | 140.26642 | 8001 ft | 253 kts | 188° |
| 2026-05-06 01:02 | 36.26171 | 140.26344 | 8004 ft | 253 kts | 188° |
| 2026-05-06 01:02 | 36.24427 | 140.26044 | 8002 ft | 253 kts | 188° |
| 2026-05-06 01:02 | 36.22680 | 140.25745 | 8003 ft | 253 kts | 188° |
| 2026-05-06 01:03 | 36.20934 | 140.25447 | 8006 ft | 253 kts | 188° |
| 2026-05-06 01:03 | 36.19191 | 140.25148 | 8006 ft | 252 kts | 188° |
| 2026-05-06 01:03 | 36.17457 | 140.24852 | 8000 ft | 251 kts | 188° |
| 2026-05-06 01:03 | 36.15742 | 140.24558 | 8001 ft | 252 kts | 188° |
| 2026-05-06 01:04 | 36.14003 | 140.24261 | 8002 ft | 253 kts | 188° |
| 2026-05-06 01:04 | 36.12211 | 140.23955 | 8003 ft | 253 kts | 188° |
| 2026-05-06 01:04 | 36.10466 | 140.23657 | 8007 ft | 253 kts | 188° |
| 2026-05-06 01:04 | 36.08719 | 140.23359 | 8006 ft | 254 kts | 188° |
| 2026-05-06 01:05 | 36.06971 | 140.23061 | 8006 ft | 253 kts | 188° |
| 2026-05-06 01:05 | 36.05228 | 140.22763 | 8007 ft | 253 kts | 188° |
| 2026-05-06 01:05 | 36.03487 | 140.22466 | 8005 ft | 253 kts | 188° |
| 2026-05-06 01:05 | 36.01765 | 140.22173 | 8007 ft | 253 kts | 188° |
| 2026-05-06 01:06 | 36.00013 | 140.21874 | 8011 ft | 254 kts | 188° |
| 2026-05-06 01:06 | 35.98269 | 140.21578 | 8005 ft | 251 kts | 188° |
| 2026-05-06 01:06 | 35.96536 | 140.21284 | 8009 ft | 251 kts | 188° |
| 2026-05-06 01:06 | 35.94808 | 140.20989 | 8006 ft | 252 kts | 188° |
| 2026-05-06 01:07 | 35.93097 | 140.20698 | 8004 ft | 242 kts | 188° |
| 2026-05-06 01:07 | 35.91516 | 140.20203 | 8003 ft | 228 kts | 207° |
| 2026-05-06 01:07 | 35.90266 | 140.19073 | 7930 ft | 221 kts | 227° |
| 2026-05-06 01:07 | 35.89464 | 140.17472 | 7902 ft | 222 kts | 244° |
| 2026-05-06 01:08 | 35.88859 | 140.15708 | 7897 ft | 224 kts | 243° |
| 2026-05-06 01:08 | 35.88254 | 140.13941 | 7933 ft | 225 kts | 243° |
| 2026-05-06 01:08 | 35.87846 | 140.12755 | 7941 ft | 227 kts | 243° |
| 2026-05-06 01:08 | 35.87509 | 140.11775 | 7949 ft | 227 kts | 243° |
| 2026-05-06 01:09 | 35.86898 | 140.09999 | 7962 ft | 227 kts | 243° |
| 2026-05-06 01:09 | 35.86278 | 140.08202 | 7988 ft | 228 kts | 243° |
| 2026-05-06 01:09 | 35.85652 | 140.06386 | 8007 ft | 231 kts | 243° |
| 2026-05-06 01:09 | 35.85027 | 140.04575 | 7848 ft | 229 kts | 243° |
| 2026-05-06 01:10 | 35.84409 | 140.02782 | 7659 ft | 226 kts | 243° |
| 2026-05-06 01:10 | 35.83796 | 140.01010 | 7458 ft | 224 kts | 244° |
| 2026-05-06 01:10 | 35.83189 | 139.99252 | 7262 ft | 223 kts | 244° |
| 2026-05-06 01:10 | 35.82584 | 139.97503 | 7070 ft | 221 kts | 244° |
| 2026-05-06 01:11 | 35.81981 | 139.95762 | 6877 ft | 220 kts | 244° |
| 2026-05-06 01:11 | 35.81391 | 139.94058 | 6691 ft | 218 kts | 244° |
| 2026-05-06 01:11 | 35.80799 | 139.92349 | 6490 ft | 216 kts | 244° |
| 2026-05-06 01:11 | 35.80211 | 139.90651 | 6302 ft | 216 kts | 244° |
| 2026-05-06 01:12 | 35.79622 | 139.88939 | 6111 ft | 216 kts | 247° |
| 2026-05-06 01:12 | 35.79450 | 139.87105 | 5936 ft | 221 kts | 273° |
| 2026-05-06 01:12 | 35.79870 | 139.85266 | 5747 ft | 224 kts | 284° |
| 2026-05-06 01:12 | 35.80388 | 139.83453 | 5554 ft | 224 kts | 285° |
| 2026-05-06 01:13 | 35.80902 | 139.81645 | 5359 ft | 223 kts | 284° |
| 2026-05-06 01:13 | 35.81239 | 139.79810 | 5179 ft | 219 kts | 274° |
| 2026-05-06 01:13 | 35.81498 | 139.77959 | 4982 ft | 219 kts | 276° |
| 2026-05-06 01:13 | 35.81769 | 139.76106 | 4776 ft | 219 kts | 276° |
| 2026-05-06 01:14 | 35.82163 | 139.72561 | 4401 ft | 196 kts | 263° |
| 2026-05-06 01:14 | 35.82144 | 139.70886 | 4234 ft | 195 kts | 265° |
| 2026-05-06 01:14 | 35.82143 | 139.69219 | 4062 ft | 194 kts | 265° |
| 2026-05-06 01:15 | 35.82142 | 139.67568 | 4006 ft | 192 kts | 265° |
| 2026-05-06 01:15 | 35.82088 | 139.65927 | 3994 ft | 190 kts | 252° |
| 2026-05-06 01:15 | 35.81481 | 139.64532 | 4017 ft | 186 kts | 226° |
| 2026-05-06 01:15 | 35.80420 | 139.63680 | 4023 ft | 184 kts | 200° |
| 2026-05-06 01:16 | 35.79167 | 139.63521 | 4032 ft | 185 kts | 178° |
| 2026-05-06 01:16 | 35.77891 | 139.63809 | 4015 ft | 187 kts | 169° |
| 2026-05-06 01:16 | 35.76671 | 139.64381 | 4018 ft | 190 kts | 156° |
| 2026-05-06 01:16 | 35.75503 | 139.65161 | 4019 ft | 187 kts | 154° |
| 2026-05-06 01:17 | 35.74406 | 139.65949 | 4004 ft | 181 kts | 154° |
| 2026-05-06 01:17 | 35.73310 | 139.66730 | 3801 ft | 181 kts | 154° |
| 2026-05-06 01:17 | 35.72225 | 139.67506 | 3555 ft | 175 kts | 154° |
| 2026-05-06 01:17 | 35.71215 | 139.68230 | 3316 ft | 162 kts | 154° |
| 2026-05-06 01:18 | 35.70251 | 139.68920 | 3124 ft | 160 kts | 154° |
| 2026-05-06 01:18 | 35.69286 | 139.69608 | 2962 ft | 160 kts | 154° |
| 2026-05-06 01:18 | 35.68322 | 139.70295 | 2797 ft | 160 kts | 154° |
| 2026-05-06 01:18 | 35.67354 | 139.70985 | 2588 ft | 160 kts | 154° |
| 2026-05-06 01:19 | 35.66404 | 139.71663 | 2379 ft | 160 kts | 154° |
| 2026-05-06 01:19 | 35.65442 | 139.72347 | 2154 ft | 160 kts | 153° |
| 2026-05-06 01:19 | 35.64483 | 139.73032 | 1930 ft | 159 kts | 153° |
| 2026-05-06 01:19 | 35.63524 | 139.73715 | 1713 ft | 159 kts | 153° |
| 2026-05-06 01:20 | 35.62572 | 139.74394 | 1478 ft | 158 kts | 153° |
| 2026-05-06 01:20 | 35.61623 | 139.75071 | 1272 ft | 158 kts | 154° |
| 2026-05-06 01:20 | 35.60671 | 139.75750 | 1052 ft | 158 kts | 154° |
| 2026-05-06 01:20 | 35.59713 | 139.76429 | 853 ft | 159 kts | 153° |
| 2026-05-06 01:21 | 35.58750 | 139.77134 | 583 ft | 162 kts | 151° |
| 2026-05-06 01:21 | 35.57790 | 139.77818 | 318 ft | 162 kts | 154° |
| 2026-05-06 01:21 | 35.56830 | 139.78493 | 147 ft | 157 kts | 153° |
| 2026-05-06 01:21 | 35.55891 | 139.79154 | 44 ft | 147 kts | 152° |
| 2026-05-06 01:22 | 35.55126 | 139.79691 | 31 ft | 101 kts | 150° |
| 2026-05-06 01:22 | 35.54654 | 139.80020 | 31 ft | 55 kts | 149° |
| 2026-05-06 01:22 | 35.54405 | 139.80198 | 31 ft | 28 kts | 149° |
| 2026-05-06 01:22 | 35.54266 | 139.80253 | 30 ft | 16 kts | 181° |
| 2026-05-06 01:23 | 35.54196 | 139.80166 | 30 ft | 17 kts | 238° |
| 2026-05-06 01:23 | 35.54136 | 139.80146 | 30 ft | 6 kts | 155° |
| 2026-05-06 01:23 | 35.54094 | 139.80176 | 30 ft | 8 kts | 150° |
| 2026-05-06 01:23 | 35.54030 | 139.80218 | 30 ft | 13 kts | 152° |
| 2026-05-06 01:24 | 35.53933 | 139.80281 | 30 ft | 18 kts | 157° |
| 2026-05-06 01:24 | 35.53850 | 139.80229 | 30 ft | 15 kts | 239° |
| 2026-05-06 01:24 | 35.53778 | 139.80109 | 30 ft | 20 kts | 240° |
| 2026-05-06 01:24 | 35.53702 | 139.79949 | 30 ft | 23 kts | 240° |
| 2026-05-06 01:25 | 35.53624 | 139.79787 | 30 ft | 21 kts | 238° |
| 2026-05-06 01:25 | 35.53551 | 139.79633 | 30 ft | 20 kts | 241° |
| 2026-05-06 01:25 | 35.53481 | 139.79484 | 30 ft | 20 kts | 239° |
| 2026-05-06 01:25 | 35.53408 | 139.79333 | 30 ft | 21 kts | 240° |
| 2026-05-06 01:26 | 35.53385 | 139.79171 | 30 ft | 19 kts | 288° |
| 2026-05-06 01:26 | 35.53473 | 139.79054 | 30 ft | 20 kts | 319° |
| 2026-05-06 01:26 | 35.53580 | 139.78940 | 30 ft | 21 kts | 319° |
| 2026-05-06 01:26 | 35.53696 | 139.78817 | 30 ft | 23 kts | 319° |
| 2026-05-06 01:27 | 35.53827 | 139.78701 | 30 ft | 24 kts | 330° |
| 2026-05-06 01:27 | 35.53977 | 139.78595 | 30 ft | 25 kts | 329° |
| 2026-05-06 01:27 | 35.54115 | 139.78491 | 30 ft | 14 kts | 317° |
| 2026-05-06 01:27 | 35.54118 | 139.78405 | 30 ft | 11 kts | 243° |
| 2026-05-06 01:28 | 35.54072 | 139.78309 | 30 ft | 16 kts | 239° |
| 2026-05-06 01:28 | 35.54006 | 139.78170 | 30 ft | 20 kts | 239° |
| 2026-05-06 01:28 | 35.53944 | 139.78021 | 30 ft | 11 kts | 262° |
| 2026-05-06 01:28 | 35.53968 | 139.77968 | 30 ft | 8 kts | 318° |
| 2026-05-06 01:29 | 35.54036 | 139.77917 | 30 ft | 16 kts | 329° |
| 2026-05-06 01:29 | 35.54143 | 139.77840 | 30 ft | 20 kts | 330° |
| 2026-05-06 01:29 | 35.54270 | 139.77749 | 29 ft | 23 kts | 329° |
| 2026-05-06 01:29 | 35.54403 | 139.77657 | 29 ft | 17 kts | 331° |
| 2026-05-06 01:30 | 35.54444 | 139.77568 | 29 ft | 10 kts | 261° |
| 2026-05-06 01:30 | 35.54412 | 139.77494 | 27 ft | 11 kts | 239° |
| 2026-05-06 01:30 | 35.54380 | 139.77432 | 29 ft | 1 kts | 237° |
| 2026-05-06 01:30 | 35.54361 | 139.77391 | 29 ft | 9 kts | 240° |
| 2026-05-06 01:31 | 35.54332 | 139.77334 | 29 ft | 5 kts | 227° |
| 2026-05-06 01:31 | 35.54304 | 139.77315 | 29 ft | 3 kts | 196° |
| 2026-05-06 01:31 | 35.54275 | 139.77316 | 29 ft | 2 kts | 166° |
| 2026-05-06 01:31 | 35.54256 | 139.77329 | 29 ft | 4 kts | 149° |
| 2026-05-06 01:32 | 35.54239 | 139.77341 | 29 ft | 0 kts | 149° |